SARL/AOL METAR and TAF weather

Enter ICAO airport designator
Station Type Date Time Source
SARL METAR 2022/12/02 23:00 UTC NOAA

SARL 022300Z 14013KT 9999 FEW020 SCT100 28/20 Q1009


Station Type Date Time Source
SARL Decoded METAR 2022/12/02 23:00 UTC NOAA

Paso De Los Libres Aerodrome, Argentina (SARL) 29-41S 057-09W 70M
Dec 02, 2022 - 06:00 PM EST / 2022.12.02 2300 UTC
Wind: from the SE (140 degrees) at 15 MPH (13 KT):0
Visibility: greater than 7 mile(s):0
Sky conditions: partly cloudy
Temperature: 82 F (28 C)
Dew Point: 68 F (20 C)
Relative Humidity: 61%
Pressure (altimeter): 29.80 in. Hg (1009 hPa)
ob: SARL 022300Z 14013KT 9999 FEW020 SCT100 28/20 Q1009
cycle: 23

Station Type Date Time Source
SARL TAF UTC NOAA

Error!

Example: see airport list